sensor_id;sensor_type;location;lat;lon;timestamp;pressure;altitude;pressure_sealevel;temperature;humidity
20156;BME280;10238;49.556;10.956;2023-08-20T00:01:53;98623.31;;;23.44;100.00
20156;BME280;10238;49.556;10.956;2023-08-20T00:04:46;98618.91;;;23.43;100.00
20156;BME280;10238;49.556;10.956;2023-08-20T00:07:34;98615.63;;;23.41;100.00
20156;BME280;10238;49.556;10.956;2023-08-20T00:10:22;98625.41;;;23.42;100.00
20156;BME280;10238;49.556;10.956;2023-08-20T00:13:11;98633.16;;;23.38;100.00
20156;BME280;10238;49.556;10.956;2023-08-20T00:15:59;98624.06;;;23.33;100.00
20156;BME280;10238;49.556;10.956;2023-08-20T00:18:48;98635.38;;;23.29;100.00
20156;BME280;10238;49.556;10.956;2023-08-20T00:21:39;98647.97;;;23.24;100.00
20156;BME280;10238;49.556;10.956;2023-08-20T00:24:28;98644.84;;;23.20;100.00
20156;BME280;10238;49.556;10.956;2023-08-20T00:27:16;98641.56;;;23.18;100.00
20156;BME280;10238;49.556;10.956;2023-08-20T00:30:07;98636.72;;;23.20;100.00
20156;BME280;10238;49.556;10.956;2023-08-20T00:32:55;98650.97;;;23.16;100.00
20156;BME280;10238;49.556;10.956;2023-08-20T00:35:43;98651.59;;;23.00;100.00
20156;BME280;10238;49.556;10.956;2023-08-20T00:38:30;98649.09;;;22.98;100.00
20156;BME280;10238;49.556;10.956;2023-08-20T00:41:18;98644.44;;;23.05;100.00
20156;BME280;10238;49.556;10.956;2023-08-20T00:44:06;98643.53;;;23.11;100.00
20156;BME280;10238;49.556;10.956;2023-08-20T00:46:56;98640.66;;;23.06;100.00
20156;BME280;10238;49.556;10.956;2023-08-20T00:49:44;98634.31;;;23.12;100.00
20156;BME280;10238;49.556;10.956;2023-08-20T00:52:34;98630.53;;;23.13;100.00
20156;BME280;10238;49.556;10.956;2023-08-20T00:55:22;98634.31;;;23.12;100.00
20156;BME280;10238;49.556;10.956;2023-08-20T00:58:10;98639.13;;;23.10;100.00
20156;BME280;10238;49.556;10.956;2023-08-20T01:00:58;98640.19;;;23.09;100.00
20156;BME280;10238;49.556;10.956;2023-08-20T01:03:48;98641.84;;;23.10;100.00
20156;BME280;10238;49.556;10.956;2023-08-20T01:06:56;98645.22;;;23.06;100.00
20156;BME280;10238;49.556;10.956;2023-08-20T01:09:57;98642.91;;;23.09;100.00
20156;BME280;10238;49.556;10.956;2023-08-20T01:12:51;98648.63;;;23.01;100.00
20156;BME280;10238;49.556;10.956;2023-08-20T01:15:39;98648.63;;;23.01;100.00
20156;BME280;10238;49.556;10.956;2023-08-20T01:18:27;98654.53;;;22.98;100.00
20156;BME280;10238;49.556;10.956;2023-08-20T01:21:34;98652.84;;;22.97;100.00
20156;BME280;10238;49.556;10.956;2023-08-20T01:24:44;98658.59;;;22.89;100.00
20156;BME280;10238;49.556;10.956;2023-08-20T01:27:51;98651.72;;;22.87;100.00
20156;BME280;10238;49.556;10.956;2023-08-20T01:30:42;98649.22;;;22.85;100.00
20156;BME280;10238;49.556;10.956;2023-08-20T01:33:32;98658.41;;;22.84;100.00
20156;BME280;10238;49.556;10.956;2023-08-20T01:36:20;98663.53;;;22.74;100.00
20156;BME280;10238;49.556;10.956;2023-08-20T01:39:07;98663.53;;;22.74;100.00
20156;BME280;10238;49.556;10.956;2023-08-20T01:41:55;98661.72;;;22.68;100.00
20156;BME280;10238;49.556;10.956;2023-08-20T01:44:42;98666.38;;;22.61;100.00
20156;BME280;10238;49.556;10.956;2023-08-20T01:47:32;98669.09;;;22.61;100.00
20156;BME280;10238;49.556;10.956;2023-08-20T01:50:20;98673.31;;;22.57;100.00
20156;BME280;10238;49.556;10.956;2023-08-20T01:53:08;98665.63;;;22.54;100.00
20156;BME280;10238;49.556;10.956;2023-08-20T01:55:56;98673.34;;;22.51;100.00
20156;BME280;10238;49.556;10.956;2023-08-20T01:58:43;98672.97;;;22.47;100.00
20156;BME280;10238;49.556;10.956;2023-08-20T02:01:31;98671.91;;;22.48;100.00
20156;BME280;10238;49.556;10.956;2023-08-20T02:04:20;98673.78;;;22.48;100.00
20156;BME280;10238;49.556;10.956;2023-08-20T02:07:08;98670.91;;;22.43;100.00
20156;BME280;10238;49.556;10.956;2023-08-20T02:09:56;98665.09;;;22.39;100.00
20156;BME280;10238;49.556;10.956;2023-08-20T02:12:43;98674.66;;;22.42;100.00
20156;BME280;10238;49.556;10.956;2023-08-20T02:15:31;98671.41;;;22.33;100.00
20156;BME280;10238;49.556;10.956;2023-08-20T02:18:20;98670.19;;;22.29;100.00
20156;BME280;10238;49.556;10.956;2023-08-20T02:21:09;98676.19;;;22.31;100.00
20156;BME280;10238;49.556;10.956;2023-08-20T02:23:57;98679.41;;;22.22;100.00
20156;BME280;10238;49.556;10.956;2023-08-20T02:26:45;98687.78;;;22.20;100.00
20156;BME280;10238;49.556;10.956;2023-08-20T02:29:33;98681.91;;;22.23;100.00
20156;BME280;10238;49.556;10.956;2023-08-20T02:32:20;98687.59;;;22.15;100.00
20156;BME280;10238;49.556;10.956;2023-08-20T02:35:08;98681.56;;;22.13;100.00
20156;BME280;10238;49.556;10.956;2023-08-20T02:37:57;98685.31;;;22.12;100.00
20156;BME280;10238;49.556;10.956;2023-08-20T02:40:45;98683.22;;;22.14;100.00
20156;BME280;10238;49.556;10.956;2023-08-20T02:43:33;98687.88;;;22.07;100.00
20156;BME280;10238;49.556;10.956;2023-08-20T02:46:20;98684.09;;;22.08;100.00
20156;BME280;10238;49.556;10.956;2023-08-20T02:49:08;98679.56;;;22.02;100.00
20156;BME280;10238;49.556;10.956;2023-08-20T02:51:56;98686.03;;;22.01;100.00
20156;BME280;10238;49.556;10.956;2023-08-20T02:54:44;98688.78;;;21.95;100.00
20156;BME280;10238;49.556;10.956;2023-08-20T02:57:32;98682.16;;;21.91;100.00
20156;BME280;10238;49.556;10.956;2023-08-20T03:00:20;98675.50;;;21.87;100.00
20156;BME280;10238;49.556;10.956;2023-08-20T03:03:08;98680.09;;;21.86;100.00
20156;BME280;10238;49.556;10.956;2023-08-20T03:05:56;98675.94;;;21.84;100.00
20156;BME280;10238;49.556;10.956;2023-08-20T03:08:44;98676.59;;;21.79;100.00
20156;BME280;10238;49.556;10.956;2023-08-20T03:11:33;98673.28;;;21.77;100.00
20156;BME280;10238;49.556;10.956;2023-08-20T03:14:21;98677.66;;;21.72;100.00
20156;BME280;10238;49.556;10.956;2023-08-20T03:17:09;98672.47;;;21.70;100.00
20156;BME280;10238;49.556;10.956;2023-08-20T03:19:58;98675.59;;;21.67;100.00
20156;BME280;10238;49.556;10.956;2023-08-20T03:22:46;98677.09;;;21.63;100.00
20156;BME280;10238;49.556;10.956;2023-08-20T03:25:34;98685.03;;;21.58;100.00
20156;BME280;10238;49.556;10.956;2023-08-20T03:28:23;98688.19;;;21.55;100.00
20156;BME280;10238;49.556;10.956;2023-08-20T03:31:10;98686.94;;;21.51;100.00
20156;BME280;10238;49.556;10.956;2023-08-20T03:33:58;98689.03;;;21.49;100.00
20156;BME280;10238;49.556;10.956;2023-08-20T03:36:46;98692.59;;;21.43;100.00
20156;BME280;10238;49.556;10.956;2023-08-20T03:39:34;98690.50;;;21.45;100.00
20156;BME280;10238;49.556;10.956;2023-08-20T03:42:21;98677.38;;;21.42;100.00
20156;BME280;10238;49.556;10.956;2023-08-20T03:45:10;98684.91;;;21.40;100.00
20156;BME280;10238;49.556;10.956;2023-08-20T03:47:58;98694.50;;;21.36;100.00
20156;BME280;10238;49.556;10.956;2023-08-20T03:50:46;98684.28;;;21.38;100.00
20156;BME280;10238;49.556;10.956;2023-08-20T03:53:34;98698.25;;;21.35;100.00
20156;BME280;10238;49.556;10.956;2023-08-20T03:56:21;98700.78;;;21.30;100.00
20156;BME280;10238;49.556;10.956;2023-08-20T03:59:09;98704.50;;;21.29;100.00
20156;BME280;10238;49.556;10.956;2023-08-20T04:01:59;98702.06;;;21.21;100.00
20156;BME280;10238;49.556;10.956;2023-08-20T04:04:46;98703.09;;;21.20;100.00
20156;BME280;10238;49.556;10.956;2023-08-20T04:07:34;98703.50;;;21.23;100.00
20156;BME280;10238;49.556;10.956;2023-08-20T04:10:22;98707.47;;;21.21;100.00
20156;BME280;10238;49.556;10.956;2023-08-20T04:13:09;98710.81;;;21.16;100.00
20156;BME280;10238;49.556;10.956;2023-08-20T04:15:57;98710.59;;;21.18;100.00
20156;BME280;10238;49.556;10.956;2023-08-20T04:18:46;98713.91;;;21.20;100.00
20156;BME280;10238;49.556;10.956;2023-08-20T04:21:34;98723.06;;;21.19;100.00
20156;BME280;10238;49.556;10.956;2023-08-20T04:24:21;98719.97;;;21.09;100.00
20156;BME280;10238;49.556;10.956;2023-08-20T04:27:09;98714.13;;;21.12;100.00
20156;BME280;10238;49.556;10.956;2023-08-20T04:29:57;98708.31;;;21.15;100.00
20156;BME280;10238;49.556;10.956;2023-08-20T04:32:45;98720.19;;;21.14;100.00
20156;BME280;10238;49.556;10.956;2023-08-20T04:35:33;98720.19;;;21.14;100.00
20156;BME280;10238;49.556;10.956;2023-08-20T04:38:21;98718.72;;;21.11;100.00
20156;BME280;10238;49.556;10.956;2023-08-20T04:41:09;98725.78;;;21.12;100.00
20156;BME280;10238;49.556;10.956;2023-08-20T04:43:56;98728.72;;;21.11;100.00
20156;BME280;10238;49.556;10.956;2023-08-20T04:46:44;98726.59;;;21.13;100.00
20156;BME280;10238;49.556;10.956;2023-08-20T04:49:31;98718.72;;;21.11;100.00
20156;BME280;10238;49.556;10.956;2023-08-20T04:52:20;98724.53;;;21.15;100.00
20156;BME280;10238;49.556;10.956;2023-08-20T04:55:08;98731.16;;;21.19;100.00
20156;BME280;10238;49.556;10.956;2023-08-20T04:57:56;98724.09;;;21.18;100.00
20156;BME280;10238;49.556;10.956;2023-08-20T05:00:44;98726.38;;;21.21;100.00
20156;BME280;10238;49.556;10.956;2023-08-20T05:03:31;98727.63;;;21.25;100.00
20156;BME280;10238;49.556;10.956;2023-08-20T05:06:19;98725.53;;;21.27;100.00
20156;BME280;10238;49.556;10.956;2023-08-20T05:09:08;98723.22;;;21.30;100.00
20156;BME280;10238;49.556;10.956;2023-08-20T05:11:56;98728.63;;;21.30;100.00
20156;BME280;10238;49.556;10.956;2023-08-20T05:14:43;98735.50;;;21.33;100.00
20156;BME280;10238;49.556;10.956;2023-08-20T05:17:31;98738.63;;;21.30;100.00
20156;BME280;10238;49.556;10.956;2023-08-20T05:20:18;98736.09;;;21.35;100.00
20156;BME280;10238;49.556;10.956;2023-08-20T05:23:06;98729.84;;;21.41;100.00
20156;BME280;10238;49.556;10.956;2023-08-20T05:25:55;98731.50;;;21.42;100.00
20156;BME280;10238;49.556;10.956;2023-08-20T05:28:42;98731.91;;;21.46;100.00
20156;BME280;10238;49.556;10.956;2023-08-20T05:31:30;98735.63;;;21.51;100.00
20156;BME280;10238;49.556;10.956;2023-08-20T05:34:18;98739.78;;;21.54;100.00
20156;BME280;10238;49.556;10.956;2023-08-20T05:37:05;98748.28;;;21.57;100.00
20156;BME280;10238;49.556;10.956;2023-08-20T05:39:53;98746.88;;;21.55;100.00
20156;BME280;10238;49.556;10.956;2023-08-20T05:42:42;98743.53;;;21.53;100.00
20156;BME280;10238;49.556;10.956;2023-08-20T05:45:29;98746.03;;;21.54;100.00
20156;BME280;10238;49.556;10.956;2023-08-20T05:48:17;98749.78;;;21.53;100.00
20156;BME280;10238;49.556;10.956;2023-08-20T05:51:04;98753.72;;;21.57;100.00
20156;BME280;10238;49.556;10.956;2023-08-20T05:53:52;98763.09;;;21.55;100.00
20156;BME280;10238;49.556;10.956;2023-08-20T05:56:39;98762.25;;;21.54;100.00
20156;BME280;10238;49.556;10.956;2023-08-20T05:59:28;98763.50;;;21.58;100.00
20156;BME280;10238;49.556;10.956;2023-08-20T06:02:17;98764.72;;;21.62;100.00
20156;BME280;10238;49.556;10.956;2023-08-20T06:05:05;98759.69;;;21.66;100.00
20156;BME280;10238;49.556;10.956;2023-08-20T06:07:53;98769.88;;;21.70;100.00
20156;BME280;10238;49.556;10.956;2023-08-20T06:10:40;98758.22;;;21.76;100.00
20156;BME280;10238;49.556;10.956;2023-08-20T06:13:28;98756.31;;;21.83;100.00
20156;BME280;10238;49.556;10.956;2023-08-20T06:16:16;98745.47;;;21.90;100.00
20156;BME280;10238;49.556;10.956;2023-08-20T06:19:04;98749.59;;;21.99;100.00
20156;BME280;10238;49.556;10.956;2023-08-20T06:21:52;98747.44;;;22.07;100.00
20156;BME280;10238;49.556;10.956;2023-08-20T06:24:39;98746.56;;;22.13;100.00
20156;BME280;10238;49.556;10.956;2023-08-20T06:27:27;98756.53;;;22.19;100.00
20156;BME280;10238;49.556;10.956;2023-08-20T06:30:14;98755.59;;;22.32;100.00
20156;BME280;10238;49.556;10.956;2023-08-20T06:33:04;98766.19;;;22.40;100.00
20156;BME280;10238;49.556;10.956;2023-08-20T06:35:52;98765.72;;;22.49;100.00
20156;BME280;10238;49.556;10.956;2023-08-20T06:38:40;98763.34;;;22.59;100.00
20156;BME280;10238;49.556;10.956;2023-08-20T06:41:27;98759.94;;;22.70;100.00
20156;BME280;10238;49.556;10.956;2023-08-20T06:44:15;98760.69;;;22.77;100.00
20156;BME280;10238;49.556;10.956;2023-08-20T06:47:03;98754.97;;;22.85;100.00
20156;BME280;10238;49.556;10.956;2023-08-20T06:49:52;98757.59;;;22.98;100.00
20156;BME280;10238;49.556;10.956;2023-08-20T06:52:40;98751.41;;;23.09;100.00
20156;BME280;10238;49.556;10.956;2023-08-20T06:55:30;98757.13;;;23.19;100.00
20156;BME280;10238;49.556;10.956;2023-08-20T06:58:19;98752.66;;;23.32;100.00
20156;BME280;10238;49.556;10.956;2023-08-20T07:01:07;98757.94;;;23.45;100.00
20156;BME280;10238;49.556;10.956;2023-08-20T07:03:56;98749.50;;;23.53;100.00
20156;BME280;10238;49.556;10.956;2023-08-20T07:06:45;98751.44;;;23.64;100.00
20156;BME280;10238;49.556;10.956;2023-08-20T07:09:32;98753.75;;;23.78;100.00
20156;BME280;10238;49.556;10.956;2023-08-20T07:12:20;98765.28;;;23.92;100.00
20156;BME280;10238;49.556;10.956;2023-08-20T07:15:09;98762.03;;;24.01;100.00
20156;BME280;10238;49.556;10.956;2023-08-20T07:17:59;98758.88;;;24.16;100.00
20156;BME280;10238;49.556;10.956;2023-08-20T07:20:47;98758.09;;;24.27;100.00
20156;BME280;10238;49.556;10.956;2023-08-20T07:23:36;98752.47;;;24.40;100.00
20156;BME280;10238;49.556;10.956;2023-08-20T07:26:24;98754.97;;;24.53;100.00
20156;BME280;10238;49.556;10.956;2023-08-20T07:29:11;98750.84;;;24.62;100.00
20156;BME280;10238;49.556;10.956;2023-08-20T07:32:00;98751.13;;;24.72;100.00
20156;BME280;10238;49.556;10.956;2023-08-20T07:34:49;98762.97;;;24.89;100.00
20156;BME280;10238;49.556;10.956;2023-08-20T07:37:38;98754.56;;;25.02;100.00
20156;BME280;10238;49.556;10.956;2023-08-20T07:40:27;98751.97;;;25.18;100.00
20156;BME280;10238;49.556;10.956;2023-08-20T07:43:15;98749.38;;;25.35;100.00
20156;BME280;10238;49.556;10.956;2023-08-20T07:46:03;98747.91;;;25.56;100.00
20156;BME280;10238;49.556;10.956;2023-08-20T07:48:51;98744.28;;;25.78;100.00
20156;BME280;10238;49.556;10.956;2023-08-20T07:51:38;98742.81;;;25.87;100.00
20156;BME280;10238;49.556;10.956;2023-08-20T07:54:27;98734.38;;;26.00;100.00
20156;BME280;10238;49.556;10.956;2023-08-20T07:57:16;98736.75;;;26.25;100.00
20156;BME280;10238;49.556;10.956;2023-08-20T08:00:06;98738.34;;;26.37;100.00
20156;BME280;10238;49.556;10.956;2023-08-20T08:02:54;98734.81;;;26.53;100.00
20156;BME280;10238;49.556;10.956;2023-08-20T08:06:06;98735.47;;;26.60;100.00
20156;BME280;10238;49.556;10.956;2023-08-20T08:08:54;98726.81;;;26.80;100.00
20156;BME280;10238;49.556;10.956;2023-08-20T08:11:42;98728.97;;;26.94;100.00
20156;BME280;10238;49.556;10.956;2023-08-20T08:14:31;98721.06;;;27.14;100.00
20156;BME280;10238;49.556;10.956;2023-08-20T08:17:18;98729.88;;;27.21;100.00
20156;BME280;10238;49.556;10.956;2023-08-20T08:20:12;98737.06;;;27.44;100.00
20156;BME280;10238;49.556;10.956;2023-08-20T08:23:00;98744.75;;;27.69;100.00
20156;BME280;10238;49.556;10.956;2023-08-20T08:25:49;98742.66;;;27.97;100.00
20156;BME280;10238;49.556;10.956;2023-08-20T08:28:39;98736.75;;;28.32;100.00
20156;BME280;10238;49.556;10.956;2023-08-20T08:31:28;98729.19;;;28.44;100.00
20156;BME280;10238;49.556;10.956;2023-08-20T08:34:16;98725.56;;;28.65;100.00
20156;BME280;10238;49.556;10.956;2023-08-20T08:37:04;98727.06;;;28.77;100.00
20156;BME280;10238;49.556;10.956;2023-08-20T08:39:55;98737.03;;;28.98;100.00
20156;BME280;10238;49.556;10.956;2023-08-20T08:42:43;98720.00;;;29.28;100.00
20156;BME280;10238;49.556;10.956;2023-08-20T08:45:35;98729.91;;;29.39;100.00
20156;BME280;10238;49.556;10.956;2023-08-20T08:48:25;98724.63;;;29.74;100.00
20156;BME280;10238;49.556;10.956;2023-08-20T08:51:14;98726.41;;;30.10;100.00
20156;BME280;10238;49.556;10.956;2023-08-20T08:54:03;98716.31;;;30.46;100.00
20156;BME280;10238;49.556;10.956;2023-08-20T08:56:52;98713.31;;;30.62;100.00
20156;BME280;10238;49.556;10.956;2023-08-20T08:59:41;98703.72;;;30.85;100.00
20156;BME280;10238;49.556;10.956;2023-08-20T09:02:34;98711.06;;;31.25;100.00
20156;BME280;10238;49.556;10.956;2023-08-20T09:05:24;98704.97;;;31.43;100.00
20156;BME280;10238;49.556;10.956;2023-08-20T09:08:19;98696.69;;;31.53;100.00
20156;BME280;10238;49.556;10.956;2023-08-20T09:11:07;98696.78;;;31.28;100.00
20156;BME280;10238;49.556;10.956;2023-08-20T09:13:55;98697.56;;;31.48;100.00
20156;BME280;10238;49.556;10.956;2023-08-20T09:16:43;98705.06;;;31.91;100.00
20156;BME280;10238;49.556;10.956;2023-08-20T09:19:39;98688.03;;;32.28;100.00
20156;BME280;10238;49.556;10.956;2023-08-20T09:22:30;98692.75;;;32.61;100.00
20156;BME280;10238;49.556;10.956;2023-08-20T09:25:18;98693.81;;;32.98;100.00
20156;BME280;10238;49.556;10.956;2023-08-20T09:28:06;98694.03;;;33.31;100.00
20156;BME280;10238;49.556;10.956;2023-08-20T09:30:58;98689.31;;;33.31;97.65
20156;BME280;10238;49.556;10.956;2023-08-20T09:33:51;98675.94;;;33.48;97.57
20156;BME280;10238;49.556;10.956;2023-08-20T09:36:40;98671.69;;;33.56;88.69
20156;BME280;10238;49.556;10.956;2023-08-20T09:39:29;98686.34;;;33.75;97.77
20156;BME280;10238;49.556;10.956;2023-08-20T09:42:18;98678.69;;;34.09;91.27
20156;BME280;10238;49.556;10.956;2023-08-20T09:45:03;98679.94;;;34.35;89.91
20156;BME280;10238;49.556;10.956;2023-08-20T09:47:55;98669.59;;;34.45;85.79
20156;BME280;10238;49.556;10.956;2023-08-20T09:50:47;98673.19;;;34.27;81.70
20156;BME280;10238;49.556;10.956;2023-08-20T09:53:43;98672.88;;;34.47;84.49
20156;BME280;10238;49.556;10.956;2023-08-20T09:56:38;98664.22;;;34.86;84.90
20156;BME280;10238;49.556;10.956;2023-08-20T09:59:27;98664.47;;;35.17;86.32
20156;BME280;10238;49.556;10.956;2023-08-20T10:02:16;98669.19;;;35.57;84.86
20156;BME280;10238;49.556;10.956;2023-08-20T10:05:07;98666.81;;;35.77;73.98
20156;BME280;10238;49.556;10.956;2023-08-20T10:07:57;98666.31;;;35.21;81.10
20156;BME280;10238;49.556;10.956;2023-08-20T10:10:47;98662.88;;;35.43;71.92
20156;BME280;10238;49.556;10.956;2023-08-20T10:13:37;98667.03;;;35.27;75.25
20156;BME280;10238;49.556;10.956;2023-08-20T10:16:27;98662.94;;;35.11;67.29
20156;BME280;10238;49.556;10.956;2023-08-20T10:19:16;98655.66;;;35.15;78.31
20156;BME280;10238;49.556;10.956;2023-08-20T10:22:04;98655.66;;;35.82;76.56
20156;BME280;10238;49.556;10.956;2023-08-20T10:24:53;98653.91;;;36.22;70.72
20156;BME280;10238;49.556;10.956;2023-08-20T10:27:42;98654.75;;;36.44;67.40
20156;BME280;10238;49.556;10.956;2023-08-20T10:30:31;98640.31;;;36.78;66.88
20156;BME280;10238;49.556;10.956;2023-08-20T10:33:18;98651.56;;;36.73;70.00
20156;BME280;10238;49.556;10.956;2023-08-20T10:36:14;98659.56;;;36.52;66.67
20156;BME280;10238;49.556;10.956;2023-08-20T10:39:05;98660.44;;;36.04;68.82
20156;BME280;10238;49.556;10.956;2023-08-20T10:42:22;98665.09;;;36.17;74.94
20156;BME280;10238;49.556;10.956;2023-08-20T10:45:12;98667.59;;;36.40;77.12
20156;BME280;10238;49.556;10.956;2023-08-20T10:48:02;98662.00;;;36.54;70.84
20156;BME280;10238;49.556;10.956;2023-08-20T10:50:50;98664.84;;;36.62;69.72
20156;BME280;10238;49.556;10.956;2023-08-20T10:53:40;98650.94;;;37.07;68.54
20156;BME280;10238;49.556;10.956;2023-08-20T10:56:40;98649.34;;;37.14;62.59
20156;BME280;10238;49.556;10.956;2023-08-20T10:59:29;98649.19;;;36.66;60.68
20156;BME280;10238;49.556;10.956;2023-08-20T11:02:17;98656.13;;;35.98;61.27
20156;BME280;10238;49.556;10.956;2023-08-20T11:05:16;98647.16;;;36.28;68.23
20156;BME280;10238;49.556;10.956;2023-08-20T11:08:05;98645.38;;;36.54;63.38
20156;BME280;10238;49.556;10.956;2023-08-20T11:10:54;98643.50;;;36.63;64.46
20156;BME280;10238;49.556;10.956;2023-08-20T11:13:42;98648.38;;;36.66;57.50
20156;BME280;10238;49.556;10.956;2023-08-20T11:16:30;98635.94;;;36.55;56.60
20156;BME280;10238;49.556;10.956;2023-08-20T11:19:20;98634.94;;;36.73;65.33
20156;BME280;10238;49.556;10.956;2023-08-20T11:22:10;98641.16;;;37.09;59.82
20156;BME280;10238;49.556;10.956;2023-08-20T11:25:00;98633.66;;;37.49;71.47
20156;BME280;10238;49.556;10.956;2023-08-20T11:27:48;98625.06;;;37.67;61.80
20156;BME280;10238;49.556;10.956;2023-08-20T11:30:35;98633.75;;;38.00;61.16
20156;BME280;10238;49.556;10.956;2023-08-20T11:33:23;98632.63;;;38.09;56.99
20156;BME280;10238;49.556;10.956;2023-08-20T11:36:12;98629.81;;;37.92;57.54
20156;BME280;10238;49.556;10.956;2023-08-20T11:39:04;98628.72;;;38.10;56.08
20156;BME280;10238;49.556;10.956;2023-08-20T11:41:51;98628.91;;;38.22;58.15
20156;BME280;10238;49.556;10.956;2023-08-20T11:44:44;98629.03;;;38.00;54.48
20156;BME280;10238;49.556;10.956;2023-08-20T11:47:39;98632.47;;;38.14;58.30
20156;BME280;10238;49.556;10.956;2023-08-20T11:50:27;98619.56;;;38.52;54.91
20156;BME280;10238;49.556;10.956;2023-08-20T11:53:20;98613.66;;;38.45;51.89
20156;BME280;10238;49.556;10.956;2023-08-20T11:56:13;98622.03;;;38.11;58.72
20156;BME280;10238;49.556;10.956;2023-08-20T11:59:02;98621.22;;;38.19;53.47
20156;BME280;10238;49.556;10.956;2023-08-20T12:01:51;98621.34;;;38.06;61.06
20156;BME280;10238;49.556;10.956;2023-08-20T12:04:39;98625.56;;;37.95;55.61
20156;BME280;10238;49.556;10.956;2023-08-20T12:07:27;98627.59;;;37.55;55.10
20156;BME280;10238;49.556;10.956;2023-08-20T12:10:22;98618.59;;;38.14;56.77
20156;BME280;10238;49.556;10.956;2023-08-20T12:13:12;98611.53;;;38.25;56.26
20156;BME280;10238;49.556;10.956;2023-08-20T12:15:59;98604.50;;;38.45;56.90
20156;BME280;10238;49.556;10.956;2023-08-20T12:18:47;98597.56;;;38.76;58.17
20156;BME280;10238;49.556;10.956;2023-08-20T12:21:35;98599.16;;;38.95;49.48
20156;BME280;10238;49.556;10.956;2023-08-20T12:24:23;98596.53;;;39.07;54.01
20156;BME280;10238;49.556;10.956;2023-08-20T12:27:12;98601.59;;;39.34;53.12
20156;BME280;10238;49.556;10.956;2023-08-20T12:30:02;98603.72;;;39.37;52.06
20156;BME280;10238;49.556;10.956;2023-08-20T12:32:49;98593.03;;;39.18;54.12
20156;BME280;10238;49.556;10.956;2023-08-20T12:35:37;98588.38;;;39.39;53.30
20156;BME280;10238;49.556;10.956;2023-08-20T12:38:25;98585.59;;;39.89;53.42
20156;BME280;10238;49.556;10.956;2023-08-20T12:41:13;98590.56;;;39.75;50.58
20156;BME280;10238;49.556;10.956;2023-08-20T12:44:01;98591.91;;;39.11;49.29
20156;BME280;10238;49.556;10.956;2023-08-20T12:46:50;98586.72;;;39.01;50.83
20156;BME280;10238;49.556;10.956;2023-08-20T12:49:38;98577.72;;;38.95;54.16
20156;BME280;10238;49.556;10.956;2023-08-20T12:52:25;98577.53;;;39.09;52.97
20156;BME280;10238;49.556;10.956;2023-08-20T12:55:13;98575.59;;;39.01;50.86
20156;BME280;10238;49.556;10.956;2023-08-20T12:58:00;98571.28;;;39.12;51.17
20156;BME280;10238;49.556;10.956;2023-08-20T13:00:49;98575.88;;;39.37;48.77
20156;BME280;10238;49.556;10.956;2023-08-20T13:03:39;98570.44;;;39.49;52.25
20156;BME280;10238;49.556;10.956;2023-08-20T13:06:27;98571.81;;;39.63;47.21
20156;BME280;10238;49.556;10.956;2023-08-20T13:09:16;98573.06;;;39.74;49.27
20156;BME280;10238;49.556;10.956;2023-08-20T13:12:06;98557.78;;;40.01;50.74
20156;BME280;10238;49.556;10.956;2023-08-20T13:14:59;98557.03;;;40.33;47.85
20156;BME280;10238;49.556;10.956;2023-08-20T13:17:49;98558.78;;;40.49;47.65
20156;BME280;10238;49.556;10.956;2023-08-20T13:20:38;98550.88;;;40.72;47.36
20156;BME280;10238;49.556;10.956;2023-08-20T13:23:29;98551.56;;;40.81;44.78
20156;BME280;10238;49.556;10.956;2023-08-20T13:26:17;98554.81;;;40.38;46.91
20156;BME280;10238;49.556;10.956;2023-08-20T13:29:06;98551.78;;;39.70;45.96
20156;BME280;10238;49.556;10.956;2023-08-20T13:31:54;98548.09;;;39.57;49.07
20156;BME280;10238;49.556;10.956;2023-08-20T13:34:42;98552.94;;;39.69;48.86
20156;BME280;10238;49.556;10.956;2023-08-20T13:37:31;98543.91;;;39.92;46.37
20156;BME280;10238;49.556;10.956;2023-08-20T13:40:18;98550.06;;;38.99;48.30
20156;BME280;10238;49.556;10.956;2023-08-20T13:43:06;98551.47;;;38.75;52.66
20156;BME280;10238;49.556;10.956;2023-08-20T13:45:56;98547.56;;;39.14;49.08
20156;BME280;10238;49.556;10.956;2023-08-20T13:48:43;98541.06;;;39.02;53.21
20156;BME280;10238;49.556;10.956;2023-08-20T13:51:31;98542.50;;;39.45;46.87
20156;BME280;10238;49.556;10.956;2023-08-20T13:54:20;98543.44;;;39.49;50.83
20156;BME280;10238;49.556;10.956;2023-08-20T13:57:09;98530.53;;;40.06;50.58
20156;BME280;10238;49.556;10.956;2023-08-20T13:59:57;98529.97;;;40.13;42.30
20156;BME280;10238;49.556;10.956;2023-08-20T14:02:45;98532.03;;;39.05;44.25
20156;BME280;10238;49.556;10.956;2023-08-20T14:05:33;98534.97;;;38.70;44.90
20156;BME280;10238;49.556;10.956;2023-08-20T14:08:20;98532.75;;;38.55;48.55
20156;BME280;10238;49.556;10.956;2023-08-20T14:11:10;98526.09;;;39.15;47.75
20156;BME280;10238;49.556;10.956;2023-08-20T14:13:58;98525.47;;;39.38;46.30
20156;BME280;10238;49.556;10.956;2023-08-20T14:16:45;98530.31;;;39.70;47.19
20156;BME280;10238;49.556;10.956;2023-08-20T14:19:33;98527.19;;;39.51;45.77
20156;BME280;10238;49.556;10.956;2023-08-20T14:22:20;98532.38;;;39.41;43.65
20156;BME280;10238;49.556;10.956;2023-08-20T14:25:08;98526.31;;;39.39;44.72
20156;BME280;10238;49.556;10.956;2023-08-20T14:27:57;98523.41;;;39.27;42.04
20156;BME280;10238;49.556;10.956;2023-08-20T14:30:45;98525.03;;;38.99;44.30
20156;BME280;10238;49.556;10.956;2023-08-20T14:33:33;98526.41;;;39.22;46.88
20156;BME280;10238;49.556;10.956;2023-08-20T14:36:20;98520.25;;;39.78;47.88